createdAt,value
2019-04-07T00:01:04.626Z,24.82
2019-04-07T00:06:08.552Z,13.70
2019-04-07T00:11:12.920Z,27.30
2019-04-07T00:16:16.989Z,30.85
2019-04-07T00:21:20.815Z,31.82
2019-04-07T00:26:24.908Z,40.07
2019-04-07T00:31:28.935Z,38.40
2019-04-07T00:36:32.930Z,36.73
2019-04-07T00:41:37.548Z,38.77
2019-04-07T00:46:42.255Z,34.48
2019-04-07T00:56:51.138Z,39.78
2019-04-07T01:07:00.239Z,16.55
2019-04-07T01:12:04.984Z,21.77
2019-04-07T01:22:13.183Z,25.80
2019-04-07T01:27:18.244Z,18.23
2019-04-07T01:32:22.474Z,28.38
2019-04-07T01:37:26.544Z,29.25
2019-04-07T01:42:36.738Z,33.78
2019-04-07T01:47:57.262Z,43.15
2019-04-07T01:53:09.161Z,44.42
2019-04-07T01:58:31.683Z,38.55
2019-04-07T02:03:54.935Z,34.95
2019-04-07T02:09:23.887Z,28.30
2019-04-07T02:14:41.043Z,26.12
2019-04-07T02:19:57.059Z,29.00
2019-04-07T02:25:30.099Z,31.12
2019-04-07T02:30:52.428Z,24.95
2019-04-07T02:36:29.167Z,26.70
2019-04-07T02:41:56.979Z,28.10
2019-04-07T02:47:15.929Z,19.25
2019-04-07T02:52:37.499Z,17.07
2019-04-07T02:57:48.779Z,14.90
2019-04-07T03:03:31.134Z,23.32
2019-04-07T03:08:59.890Z,26.33
2019-04-07T03:14:19.694Z,27.45
2019-04-07T03:19:52.271Z,26.12
2019-04-07T03:25:11.125Z,30.68
2019-04-07T03:30:27.477Z,19.05
2019-04-07T03:35:40.291Z,28.02
2019-04-07T03:40:51.633Z,12.60
2019-04-07T03:46:01.573Z,20.82
2019-04-07T03:51:24.352Z,10.95
2019-04-07T03:56:54.326Z,20.60
2019-04-07T04:02:19.779Z,13.93
2019-04-07T04:07:36.140Z,13.25
2019-04-07T04:12:46.862Z,19.55
2019-04-07T04:17:51.477Z,33.18
2019-04-07T04:27:59.232Z,29.95
2019-04-07T04:38:06.611Z,22.85
2019-04-07T04:43:10.997Z,25.55
2019-04-07T04:48:15.602Z,19.77
2019-04-07T04:53:19.676Z,34.63
2019-04-07T04:58:23.647Z,22.37
2019-04-07T05:03:27.723Z,17.20
2019-04-07T05:08:32.395Z,22.02
2019-04-07T05:13:36.558Z,24.43
2019-04-07T05:18:41.555Z,19.27
2019-04-07T05:23:46.021Z,21.70
2019-04-07T05:33:53.636Z,15.75
2019-04-07T05:38:58.953Z,18.67
2019-04-07T05:44:03.521Z,24.25
2019-04-07T05:49:07.779Z,25.60
2019-04-07T05:54:12.484Z,23.52
2019-04-07T05:59:16.665Z,28.35
2019-04-07T06:04:21.553Z,54.53
2019-04-07T06:09:26.435Z,115.97
2019-04-07T06:14:30.746Z,194.43
2019-04-07T06:19:40.610Z,162.50
2019-04-07T06:24:40.829Z,94.37
2019-04-07T06:29:45.246Z,65.97
2019-04-07T06:34:50.630Z,58.48
2019-04-07T06:39:54.871Z,46.33
2019-04-07T06:45:00.380Z,55.25
2019-04-07T06:50:21.221Z,53.33
2019-04-07T06:55:56.159Z,42.75
2019-04-07T07:01:30.645Z,42.60
2019-04-07T07:07:00.548Z,35.52
2019-04-07T07:12:30.924Z,35.33
2019-04-07T07:17:51.051Z,36.50
2019-04-07T07:23:04.713Z,31.68
2019-04-07T07:28:11.510Z,33.05
2019-04-07T07:33:15.178Z,36.93
2019-04-07T07:38:19.291Z,31.48
2019-04-07T07:43:24.005Z,29.72
2019-04-07T07:53:32.929Z,22.32
2019-04-07T07:58:37.073Z,28.87
2019-04-07T08:03:41.608Z,30.37
2019-04-07T08:08:47.563Z,26.10
2019-04-07T08:13:52.470Z,26.05
2019-04-07T08:18:59.370Z,23.98
2019-04-07T08:24:02.555Z,26.93
2019-04-07T08:29:07.739Z,23.80
2019-04-07T08:34:13.068Z,22.52
2019-04-07T08:39:22.682Z,21.80
2019-04-07T08:44:25.999Z,17.92
2019-04-07T08:49:32.089Z,22.35
2019-04-07T08:54:35.580Z,21.30
2019-04-07T09:04:49.736Z,20.17
2019-04-07T09:09:50.311Z,19.55
2019-04-07T09:14:55.645Z,20.62
2019-04-07T09:20:24.512Z,18.50
2019-04-07T09:25:46.654Z,19.98
2019-04-07T09:31:05.139Z,14.90
2019-04-07T09:36:27.641Z,10.38
2019-04-07T09:41:43.137Z,16.82
2019-04-07T09:47:06.750Z,16.35
2019-04-07T09:52:36.062Z,16.82
2019-04-07T09:57:52.868Z,15.85
2019-04-07T10:03:11.455Z,17.80
2019-04-07T10:08:28.204Z,15.83
2019-04-07T10:13:57.817Z,15.05
2019-04-07T10:19:13.133Z,16.93
2019-04-07T10:24:39.386Z,18.82
2019-04-07T10:29:55.637Z,17.80
2019-04-07T10:35:17.945Z,21.12
2019-04-07T10:40:44.447Z,18.90
2019-04-07T10:46:13.583Z,21.35
2019-04-07T10:51:36.460Z,21.17
2019-04-07T10:56:47.952Z,20.95
2019-04-07T11:02:15.867Z,20.57
2019-04-07T11:07:47.177Z,23.22
2019-04-07T11:13:14.583Z,24.63
2019-04-07T11:18:41.318Z,22.55
2019-04-07T11:23:56.630Z,24.07
2019-04-07T11:29:13.323Z,24.72
2019-04-07T11:34:36.600Z,25.02
2019-04-07T11:39:59.027Z,20.70
2019-04-07T11:45:25.397Z,18.23
2019-04-07T11:50:50.655Z,21.33
2019-04-07T11:56:10.795Z,20.85
2019-04-07T12:01:31.680Z,19.90
2019-04-07T12:06:46.684Z,22.58
2019-04-07T12:12:03.620Z,20.70
2019-04-07T12:17:30.688Z,19.90
2019-04-07T12:23:09.282Z,19.20
2019-04-07T12:28:28.862Z,17.90
2019-04-07T12:33:45.174Z,20.00
2019-04-07T12:39:09.397Z,18.52
2019-04-07T12:49:44.488Z,18.73
2019-04-07T12:55:03.019Z,16.00
2019-04-07T13:00:51.287Z,18.35
2019-04-07T13:05:59.070Z,17.60
2019-04-07T13:11:31.206Z,15.30
2019-04-07T13:17:00.954Z,18.40
2019-04-07T13:27:45.631Z,17.37
2019-04-07T13:33:00.701Z,15.20
2019-04-07T13:38:23.954Z,15.73
2019-04-07T13:43:37.061Z,18.77
2019-04-07T13:49:01.649Z,18.25
2019-04-07T13:54:16.936Z,16.30
2019-04-07T13:59:44.058Z,17.52
2019-04-07T14:04:56.697Z,15.98
2019-04-07T14:10:10.342Z,17.00
2019-04-07T14:15:33.483Z,18.03
2019-04-07T14:20:49.681Z,16.42
2019-04-07T14:26:15.749Z,12.73
2019-04-07T14:31:53.948Z,18.15
2019-04-07T14:37:12.345Z,17.02
2019-04-07T14:42:38.569Z,18.20
2019-04-07T14:48:01.014Z,20.72
2019-04-07T14:53:22.544Z,17.15
2019-04-07T14:58:47.668Z,20.45
2019-04-07T15:03:50.086Z,19.77
2019-04-07T15:09:16.563Z,21.15
2019-04-07T15:14:21.290Z,19.57
2019-04-07T15:19:25.522Z,22.85
2019-04-07T15:24:29.557Z,19.20
2019-04-07T15:29:36.235Z,19.62
2019-04-07T15:34:42.239Z,17.70
2019-04-07T15:39:45.937Z,24.43
2019-04-07T15:44:50.871Z,24.23
2019-04-07T15:49:57.777Z,13.58
2019-04-07T15:55:02.029Z,23.50
2019-04-07T16:05:10.471Z,25.62
2019-04-07T16:10:15.490Z,17.02
2019-04-07T16:15:19.687Z,16.00
2019-04-07T16:20:26.344Z,17.52
2019-04-07T16:25:30.288Z,22.07
2019-04-07T16:35:39.837Z,18.35
2019-04-07T16:40:44.632Z,21.62
2019-04-07T16:50:55.284Z,23.13
2019-04-07T16:55:59.140Z,26.35
2019-04-07T17:01:03.239Z,20.62
2019-04-07T17:06:07.431Z,24.67
2019-04-07T17:11:11.499Z,20.70
2019-04-07T17:16:20.103Z,19.80
2019-04-07T17:21:22.357Z,20.48
2019-04-07T17:26:27.495Z,20.43
2019-04-07T17:31:32.648Z,21.12
2019-04-07T17:36:39.243Z,20.30
2019-04-07T17:41:43.711Z,18.42
2019-04-07T17:47:18.406Z,21.60
2019-04-07T17:52:51.233Z,16.70
2019-04-07T17:58:17.306Z,18.60
2019-04-07T18:03:43.964Z,20.05
2019-04-07T18:09:07.574Z,18.32
2019-04-07T18:14:28.359Z,17.60
2019-04-07T18:19:50.509Z,19.20
2019-04-07T18:25:06.954Z,21.87
2019-04-07T18:30:39.666Z,19.73
2019-04-07T18:35:54.460Z,21.95
2019-04-07T18:41:17.237Z,16.20
2019-04-07T18:46:27.914Z,21.40
2019-04-07T18:51:47.154Z,19.00
2019-04-07T18:57:10.490Z,17.37
2019-04-07T19:02:28.853Z,18.20
2019-04-07T19:07:41.645Z,19.37
2019-04-07T19:13:09.700Z,17.25
2019-04-07T19:18:27.069Z,22.37
2019-04-07T19:23:38.798Z,19.52
2019-04-07T19:29:12.795Z,17.62
2019-04-07T19:34:42.893Z,17.12
2019-04-07T19:40:16.504Z,19.45
2019-04-07T19:45:39.205Z,21.57
2019-04-07T19:51:03.177Z,20.02
2019-04-07T19:56:25.654Z,19.70
2019-04-07T20:01:48.033Z,22.52
2019-04-07T20:07:10.068Z,25.37
2019-04-07T20:12:20.670Z,21.33
2019-04-07T20:17:56.766Z,22.95
2019-04-07T20:23:08.488Z,22.98
2019-04-07T20:28:20.410Z,24.12
2019-04-07T20:33:32.940Z,24.37
2019-04-07T20:38:42.532Z,28.10
2019-04-07T20:44:11.185Z,23.02
2019-04-07T20:49:50.417Z,24.45
2019-04-07T20:55:13.529Z,27.58
2019-04-07T21:00:56.065Z,26.42
2019-04-07T21:06:10.517Z,32.25
2019-04-07T21:11:24.443Z,25.70
2019-04-07T21:16:46.599Z,28.63
2019-04-07T21:22:06.769Z,28.17
2019-04-07T21:27:19.290Z,32.63
2019-04-07T21:32:42.334Z,30.35
2019-04-07T21:37:58.321Z,28.98
2019-04-07T21:43:40.337Z,33.98
2019-04-07T21:49:00.695Z,27.98
2019-04-07T21:54:22.705Z,29.25
2019-04-07T21:59:36.223Z,28.00
2019-04-07T22:05:00.795Z,29.07
2019-04-07T22:10:07.320Z,36.17
2019-04-07T22:15:14.052Z,33.60
2019-04-07T22:20:20.104Z,36.10
2019-04-07T22:25:36.220Z,36.15
2019-04-07T22:30:44.577Z,30.77
2019-04-07T22:35:49.090Z,33.18
2019-04-07T22:40:54.185Z,34.78
2019-04-07T22:46:07.745Z,31.73
2019-04-07T22:51:09.941Z,33.55
2019-04-07T22:56:10.757Z,37.03
2019-04-07T23:01:14.932Z,32.23
2019-04-07T23:06:19.065Z,28.60
2019-04-07T23:11:23.684Z,31.85
2019-04-07T23:16:28.004Z,33.00
2019-04-07T23:21:32.123Z,32.53
2019-04-07T23:26:36.453Z,30.20
2019-04-07T23:31:40.542Z,34.58
2019-04-07T23:36:45.709Z,36.10
2019-04-07T23:41:51.178Z,36.80
2019-04-07T23:46:55.391Z,36.00
2019-04-07T23:51:59.503Z,36.77
2019-04-07T23:57:03.946Z,37.45
